createdAt,value
2023-01-20T00:00:40.503Z,0.20
2023-01-20T00:03:13.579Z,0.20
2023-01-20T00:05:51.164Z,0.20
2023-01-20T00:08:19.731Z,0.20
2023-01-20T00:10:50.082Z,0.20
2023-01-20T00:13:19.784Z,0.20
2023-01-20T00:15:49.133Z,0.20
2023-01-20T00:18:19.954Z,0.20
2023-01-20T00:20:50.755Z,0.20
2023-01-20T00:23:19.980Z,0.10
2023-01-20T00:25:51.190Z,0.10
2023-01-20T00:28:18.751Z,0.20
2023-01-20T00:30:48.138Z,0.20
2023-01-20T00:33:16.231Z,0.10
2023-01-20T00:35:46.193Z,0.10
2023-01-20T00:38:15.688Z,0.10
2023-01-20T00:40:43.780Z,0.00
2023-01-20T00:43:15.304Z,0.00
2023-01-20T00:45:45.043Z,-0.20
2023-01-20T00:48:19.976Z,-0.20
2023-01-20T00:50:51.426Z,-0.20
2023-01-20T00:53:25.126Z,-0.30
2023-01-20T00:55:55.902Z,-0.30
2023-01-20T00:58:27.308Z,-0.20
2023-01-20T01:00:58.307Z,-0.30
2023-01-20T01:03:33.522Z,-0.40
2023-01-20T01:06:13.520Z,-0.30
2023-01-20T01:08:43.798Z,-0.40
2023-01-20T01:11:16.396Z,-0.40
2023-01-20T01:13:46.812Z,-0.50
2023-01-20T01:16:17.914Z,-0.50
2023-01-20T01:18:45.991Z,-0.60
2023-01-20T01:21:23.505Z,-0.60
2023-01-20T01:23:55.795Z,-0.70
2023-01-20T01:26:25.630Z,-0.70
2023-01-20T01:28:54.487Z,-0.70
2023-01-20T01:31:22.466Z,-0.70
2023-01-20T01:33:50.778Z,-0.80
2023-01-20T01:36:20.035Z,-0.80
2023-01-20T01:38:57.695Z,-0.90
2023-01-20T01:41:28.940Z,-0.90
2023-01-20T01:44:14.677Z,-1.10
2023-01-20T01:46:47.188Z,-1.00
2023-01-20T01:49:30.231Z,-0.90
2023-01-20T01:52:17.536Z,-1.10
2023-01-20T01:54:52.714Z,-1.10
2023-01-20T01:57:20.664Z,-1.10
2023-01-20T01:59:49.136Z,-1.00
2023-01-20T02:02:21.175Z,-1.00
2023-01-20T02:04:55.297Z,-1.10
2023-01-20T02:07:23.801Z,-1.00
2023-01-20T02:09:54.692Z,-1.00
2023-01-20T02:12:23.092Z,-1.00
2023-01-20T02:14:58.746Z,-1.00
2023-01-20T02:17:35.607Z,-1.10
2023-01-20T02:21:06.453Z,-1.00
2023-01-20T02:24:02.171Z,-1.10
2023-01-20T02:26:39.084Z,-1.00
2023-01-20T02:29:27.595Z,-1.00
2023-01-20T02:32:07.339Z,-1.00
2023-01-20T02:35:24.916Z,-1.00
2023-01-20T02:38:26.571Z,-1.10
2023-01-20T02:41:48.592Z,-1.00
2023-01-20T02:45:04.463Z,-1.00
2023-01-20T02:47:56.564Z,-1.00
2023-01-20T02:51:03.677Z,-1.00
2023-01-20T02:53:44.452Z,-1.00
2023-01-20T02:56:16.397Z,-1.00
2023-01-20T02:59:11.131Z,-0.90
2023-01-20T03:02:12.280Z,-1.00
2023-01-20T03:04:50.330Z,-1.10
2023-01-20T03:07:24.278Z,-1.00
2023-01-20T03:09:56.036Z,-1.00
2023-01-20T03:12:30.962Z,-1.00
2023-01-20T03:15:01.807Z,-1.00
2023-01-20T03:17:35.873Z,-1.00
2023-01-20T03:20:13.185Z,-1.10
2023-01-20T03:22:44.701Z,-1.10
2023-01-20T03:25:16.907Z,-1.10
2023-01-20T03:27:45.620Z,-1.10
2023-01-20T03:30:17.409Z,-1.10
2023-01-20T03:32:48.163Z,-1.00
2023-01-20T03:35:17.445Z,-1.00
2023-01-20T03:37:45.909Z,-1.00
2023-01-20T03:40:19.937Z,-1.00
2023-01-20T03:43:21.951Z,-1.00
2023-01-20T03:46:04.319Z,-1.00
2023-01-20T03:48:35.594Z,-1.20
2023-01-20T03:51:15.920Z,-1.10
2023-01-20T03:54:07.251Z,-1.20
2023-01-20T03:57:06.913Z,-1.20
2023-01-20T03:59:38.659Z,-1.20
2023-01-20T04:02:08.529Z,-1.20
2023-01-20T04:04:46.365Z,-1.30
2023-01-20T04:07:20.326Z,-1.20
2023-01-20T04:09:55.923Z,-1.30
2023-01-20T04:12:26.982Z,-1.30
2023-01-20T04:14:59.005Z,-1.30
2023-01-20T04:17:31.459Z,-1.30
2023-01-20T04:20:06.965Z,-1.20
2023-01-20T04:22:44.370Z,-1.20
2023-01-20T04:25:31.815Z,-1.20
2023-01-20T04:28:02.226Z,-1.20
2023-01-20T04:30:31.857Z,-1.10
2023-01-20T04:33:00.956Z,-1.10
2023-01-20T04:35:34.128Z,-1.00
2023-01-20T04:38:05.803Z,-1.20
2023-01-20T04:40:35.540Z,-1.20
2023-01-20T04:43:07.084Z,-1.10
2023-01-20T04:45:35.979Z,-1.10
2023-01-20T04:48:09.923Z,-1.10
2023-01-20T04:50:45.527Z,-1.00
2023-01-20T04:53:17.931Z,-1.00
2023-01-20T04:55:46.220Z,-1.00
2023-01-20T04:58:13.707Z,-0.90
2023-01-20T05:00:45.974Z,-1.00
2023-01-20T05:03:13.055Z,-1.00
2023-01-20T05:05:42.277Z,-1.00
2023-01-20T05:08:11.965Z,-1.10
2023-01-20T05:10:41.844Z,-1.10
2023-01-20T05:13:12.743Z,-1.20
2023-01-20T05:15:41.139Z,-1.10
2023-01-20T05:18:09.196Z,-1.20
2023-01-20T05:20:39.656Z,-1.20
2023-01-20T05:23:07.720Z,-1.10
2023-01-20T05:25:36.065Z,-1.10
2023-01-20T05:28:06.505Z,-1.10
2023-01-20T05:30:34.737Z,-1.00
2023-01-20T05:33:09.969Z,-0.90
2023-01-20T05:35:45.315Z,-0.90
2023-01-20T05:38:13.371Z,-0.80
2023-01-20T05:40:41.422Z,-0.90
2023-01-20T05:43:13.055Z,-0.90
2023-01-20T05:45:43.412Z,-0.90
2023-01-20T05:48:12.839Z,-0.90
2023-01-20T05:50:45.701Z,-1.00
2023-01-20T05:53:18.299Z,-1.10
2023-01-20T05:55:49.343Z,-1.10
2023-01-20T05:58:16.327Z,-1.00
2023-01-20T06:00:43.507Z,-1.00
2023-01-20T06:03:11.442Z,-1.00
2023-01-20T06:05:49.416Z,-1.00
2023-01-20T06:08:18.675Z,-0.90
2023-01-20T06:10:48.321Z,-1.00
2023-01-20T06:13:18.218Z,-1.00
2023-01-20T06:16:07.990Z,-0.90
2023-01-20T06:18:38.863Z,-0.90
2023-01-20T06:21:09.035Z,-1.00
2023-01-20T06:23:39.572Z,-0.90
2023-01-20T06:26:19.237Z,-0.90
2023-01-20T06:28:46.455Z,-1.00
2023-01-20T06:31:19.372Z,-0.90
2023-01-20T06:33:49.115Z,-0.90
2023-01-20T06:36:18.661Z,-0.80
2023-01-20T06:38:52.990Z,-0.80
2023-01-20T06:41:27.545Z,-0.80
2023-01-20T06:43:56.820Z,-0.90
2023-01-20T06:46:26.080Z,-0.70
2023-01-20T06:51:41.823Z,-0.60
2023-01-20T06:54:12.772Z,-0.70
2023-01-20T06:56:43.455Z,-0.70
2023-01-20T06:59:14.821Z,-0.60
2023-01-20T07:01:43.189Z,-0.60
2023-01-20T07:04:14.715Z,-0.60
2023-01-20T07:06:44.667Z,-0.70
2023-01-20T07:09:14.091Z,-0.60
2023-01-20T07:11:45.768Z,-0.40
2023-01-20T07:14:16.818Z,-0.40
2023-01-20T07:16:44.117Z,-0.40
2023-01-20T07:19:12.245Z,-0.50
2023-01-20T07:21:42.746Z,-0.40
2023-01-20T07:24:14.956Z,-0.20
2023-01-20T07:26:45.854Z,-0.30
2023-01-20T07:29:17.915Z,-0.20
2023-01-20T07:31:49.967Z,-0.20
2023-01-20T07:37:03.181Z,-0.20
2023-01-20T07:39:36.194Z,-0.20
2023-01-20T07:42:05.706Z,-0.10
2023-01-20T07:44:34.970Z,0.00
2023-01-20T07:47:04.226Z,0.00
2023-01-20T07:49:34.597Z,0.00
2023-01-20T07:52:06.130Z,0.10
2023-01-20T07:54:37.323Z,0.10
2023-01-20T07:57:06.945Z,0.10
2023-01-20T07:59:34.594Z,0.10
2023-01-20T08:02:06.158Z,0.30
2023-01-20T08:04:38.800Z,0.30
2023-01-20T08:07:06.929Z,0.30
2023-01-20T08:09:36.776Z,0.20
2023-01-20T08:12:06.515Z,0.30
2023-01-20T08:14:37.951Z,0.40
2023-01-20T08:17:06.937Z,0.40
2023-01-20T08:19:34.730Z,0.50
2023-01-20T08:22:06.775Z,0.60
2023-01-20T08:24:39.169Z,0.60
2023-01-20T08:27:07.718Z,0.60
2023-01-20T08:29:38.124Z,0.70
2023-01-20T08:32:07.081Z,0.90
2023-01-20T08:34:37.531Z,0.90
2023-01-20T08:37:05.719Z,1.00
2023-01-20T08:39:33.963Z,1.10
2023-01-20T08:42:06.429Z,1.10
2023-01-20T08:44:34.912Z,1.10
2023-01-20T08:47:06.209Z,1.20
2023-01-20T08:49:36.868Z,1.30
2023-01-20T08:52:07.659Z,1.30
2023-01-20T08:54:38.436Z,1.40
2023-01-20T08:57:09.266Z,1.40
2023-01-20T08:59:39.983Z,1.40
2023-01-20T09:02:07.448Z,1.20
2023-01-20T09:04:39.811Z,1.10
2023-01-20T09:07:07.876Z,1.30
2023-01-20T09:09:37.493Z,1.40
2023-01-20T09:12:08.675Z,1.40
2023-01-20T09:14:38.970Z,1.30
2023-01-20T09:17:09.408Z,1.30
2023-01-20T09:19:36.377Z,1.20
2023-01-20T09:22:07.283Z,1.40
2023-01-20T09:24:34.444Z,1.40
2023-01-20T09:27:07.871Z,1.40
2023-01-20T09:29:36.831Z,1.50
2023-01-20T09:32:07.841Z,1.60
2023-01-20T09:34:37.566Z,1.70
2023-01-20T09:37:29.620Z,2.00
2023-01-20T09:40:20.391Z,1.90
2023-01-20T09:43:24.982Z,2.00
2023-01-20T09:46:28.733Z,2.00
2023-01-20T09:49:41.597Z,2.00
2023-01-20T09:52:56.872Z,2.00
2023-01-20T09:55:53.874Z,2.00
2023-01-20T09:58:28.969Z,2.10
2023-01-20T10:01:20.357Z,2.30
2023-01-20T10:04:15.806Z,2.30
2023-01-20T10:07:09.226Z,2.60
2023-01-20T10:10:07.806Z,2.60
2023-01-20T10:13:12.026Z,2.80
2023-01-20T10:15:59.135Z,2.80
2023-01-20T10:18:53.408Z,2.70
2023-01-20T10:21:36.079Z,2.90
2023-01-20T10:24:18.133Z,2.80
2023-01-20T10:27:18.787Z,3.00
2023-01-20T10:29:56.330Z,3.30
2023-01-20T10:32:40.104Z,3.30
2023-01-20T10:35:29.098Z,3.30
2023-01-20T10:37:58.988Z,3.30
2023-01-20T10:40:53.814Z,3.20
2023-01-20T10:43:21.686Z,3.20
2023-01-20T10:46:18.334Z,3.10
2023-01-20T10:49:27.799Z,3.10
2023-01-20T10:52:28.225Z,3.30
2023-01-20T10:55:17.526Z,3.30
2023-01-20T10:57:53.020Z,3.30
2023-01-20T11:00:28.415Z,3.30
2023-01-20T11:03:03.224Z,3.20
2023-01-20T11:05:37.316Z,3.20
2023-01-20T11:08:29.252Z,3.20
2023-01-20T11:11:02.857Z,3.00
2023-01-20T11:13:31.728Z,3.30
2023-01-20T11:16:04.501Z,3.40
2023-01-20T11:18:33.765Z,3.40
2023-01-20T11:21:23.571Z,3.20
2023-01-20T11:24:05.803Z,3.20
2023-01-20T11:26:36.035Z,3.10
2023-01-20T11:29:23.303Z,3.20
2023-01-20T11:31:55.822Z,3.20
2023-01-20T11:34:49.752Z,3.00
2023-01-20T11:37:32.869Z,3.00
2023-01-20T11:40:05.173Z,2.80
2023-01-20T11:42:48.855Z,3.10
2023-01-20T11:45:35.937Z,3.10
2023-01-20T11:48:17.536Z,3.20
2023-01-20T11:50:57.025Z,3.20
2023-01-20T11:53:47.574Z,3.30
2023-01-20T11:56:43.690Z,3.20
2023-01-20T11:59:46.217Z,3.70
2023-01-20T12:02:13.654Z,4.00
2023-01-20T12:05:30.448Z,4.20
2023-01-20T12:07:59.804Z,4.20
2023-01-20T12:10:37.932Z,4.30
2023-01-20T12:13:32.776Z,4.40
2023-01-20T12:16:06.903Z,4.00
2023-01-20T12:19:04.970Z,3.90
2023-01-20T12:21:46.479Z,3.90
2023-01-20T12:24:42.429Z,4.00
2023-01-20T12:27:23.955Z,4.00
2023-01-20T12:30:13.014Z,3.80
2023-01-20T12:32:47.873Z,3.90
2023-01-20T12:35:17.062Z,3.80
2023-01-20T12:38:02.653Z,3.70
2023-01-20T12:40:54.825Z,3.80
2023-01-20T12:44:13.926Z,3.80
2023-01-20T12:47:24.883Z,3.90
2023-01-20T12:50:33.825Z,3.80
2023-01-20T12:53:44.849Z,3.80
2023-01-20T12:56:46.106Z,3.70
2023-01-20T12:59:55.412Z,3.60
2023-01-20T13:03:07.710Z,3.60
2023-01-20T13:06:17.292Z,3.40
2023-01-20T13:09:16.120Z,3.20
2023-01-20T13:12:17.354Z,3.30
2023-01-20T13:15:17.222Z,3.10
2023-01-20T13:18:21.926Z,3.10
2023-01-20T13:23:39.747Z,3.20
2023-01-20T13:26:10.851Z,3.30
2023-01-20T13:28:54.704Z,3.30
2023-01-20T13:31:47.582Z,3.30
2023-01-20T13:34:31.456Z,3.20
2023-01-20T13:37:11.405Z,3.00
2023-01-20T13:39:54.006Z,3.20
2023-01-20T13:42:56.313Z,3.20
2023-01-20T13:45:26.425Z,3.10
2023-01-20T13:48:03.424Z,2.90
2023-01-20T13:50:43.374Z,2.90
2023-01-20T13:53:29.906Z,3.00
2023-01-20T13:56:40.660Z,3.10
2023-01-20T13:59:13.981Z,3.00
2023-01-20T14:01:44.572Z,3.10
2023-01-20T14:04:20.161Z,3.10
2023-01-20T14:07:11.094Z,3.00
2023-01-20T14:09:44.007Z,3.10
2023-01-20T14:12:12.495Z,3.10
2023-01-20T14:14:46.663Z,3.00
2023-01-20T14:17:21.359Z,3.00
2023-01-20T14:19:50.239Z,3.00
2023-01-20T14:22:30.629Z,2.80
2023-01-20T14:25:01.840Z,2.70
2023-01-20T14:27:36.202Z,2.90
2023-01-20T14:30:21.152Z,2.90
2023-01-20T14:32:50.776Z,3.00
2023-01-20T14:35:40.434Z,2.90
2023-01-20T14:38:19.194Z,2.90
2023-01-20T14:40:49.563Z,2.80
2023-01-20T14:43:19.851Z,2.80
2023-01-20T14:45:54.677Z,2.70
2023-01-20T14:48:34.503Z,2.60
2023-01-20T14:51:08.269Z,2.60
2023-01-20T14:53:38.706Z,2.70
2023-01-20T14:56:26.775Z,2.70
2023-01-20T14:59:02.316Z,2.70
2023-01-20T15:01:33.837Z,2.70
2023-01-20T15:04:07.001Z,2.70
2023-01-20T15:06:36.327Z,2.60
2023-01-20T15:09:27.044Z,2.60
2023-01-20T15:12:35.369Z,2.60
2023-01-20T15:15:23.704Z,2.60
2023-01-20T15:18:11.787Z,2.60
2023-01-20T15:20:44.581Z,2.50
2023-01-20T15:23:25.873Z,2.50
2023-01-20T15:26:07.764Z,2.30
2023-01-20T15:28:41.749Z,2.20
2023-01-20T15:31:17.769Z,2.30
2023-01-20T15:33:45.364Z,2.20
2023-01-20T15:36:53.735Z,2.20
2023-01-20T15:39:36.944Z,2.20
2023-01-20T15:42:08.945Z,2.20
2023-01-20T15:44:40.425Z,2.20
2023-01-20T15:47:31.654Z,2.20
2023-01-20T15:50:02.565Z,2.00
2023-01-20T15:52:31.460Z,2.20
2023-01-20T15:55:01.296Z,2.20
2023-01-20T15:57:30.297Z,2.10
2023-01-20T16:00:00.176Z,2.20
2023-01-20T16:02:30.253Z,2.20
2023-01-20T16:04:59.956Z,2.10
2023-01-20T16:07:28.657Z,2.20
2023-01-20T16:09:58.869Z,2.10
2023-01-20T16:12:29.727Z,2.20
2023-01-20T16:14:59.088Z,2.10
2023-01-20T16:17:30.276Z,2.10
2023-01-20T16:19:59.567Z,2.00
2023-01-20T16:22:30.762Z,2.00
2023-01-20T16:24:59.873Z,2.00
2023-01-20T16:27:29.807Z,2.10
2023-01-20T16:30:00.163Z,2.10
2023-01-20T16:32:30.666Z,2.10
2023-01-20T16:35:00.151Z,2.10
2023-01-20T16:37:29.452Z,2.20
2023-01-20T16:39:58.536Z,2.10
2023-01-20T16:42:29.851Z,2.00
2023-01-20T16:44:57.534Z,2.10
2023-01-20T16:51:23.052Z,2.10
2023-01-20T16:53:50.369Z,2.20
2023-01-20T16:56:34.366Z,2.20
2023-01-20T16:59:04.121Z,2.10
2023-01-20T17:01:34.083Z,2.10
2023-01-20T17:04:03.826Z,2.10
2023-01-20T17:06:33.966Z,2.10
2023-01-20T17:09:04.709Z,2.00
2023-01-20T17:11:36.212Z,1.90
2023-01-20T17:14:09.664Z,1.90
2023-01-20T17:26:09.155Z,1.80
2023-01-20T17:28:48.496Z,1.90
2023-01-20T17:31:21.482Z,1.90
2023-01-20T17:33:51.762Z,1.90
2023-01-20T17:36:23.455Z,1.90
2023-01-20T17:38:52.065Z,1.90
2023-01-20T17:41:23.733Z,1.90
2023-01-20T17:43:52.718Z,1.90
2023-01-20T17:46:40.757Z,1.80
2023-01-20T17:49:11.302Z,1.90
2023-01-20T17:51:41.040Z,1.90
2023-01-20T17:54:10.980Z,1.90
2023-01-20T17:56:42.753Z,1.90
2023-01-20T17:59:14.613Z,1.90
2023-01-20T18:01:45.215Z,1.90
2023-01-20T18:07:00.630Z,1.90
2023-01-20T18:09:30.101Z,2.00
2023-01-20T18:12:00.712Z,2.00
2023-01-20T18:14:29.505Z,2.10
2023-01-20T18:16:58.836Z,2.00
2023-01-20T18:19:30.184Z,2.10
2023-01-20T18:22:07.716Z,2.00
2023-01-20T18:24:41.368Z,2.00
2023-01-20T18:27:11.006Z,2.00
2023-01-20T18:29:41.233Z,2.10
2023-01-20T18:32:10.266Z,2.10
2023-01-20T18:34:37.864Z,2.10
2023-01-20T18:37:08.175Z,2.10
2023-01-20T18:39:48.352Z,2.20
2023-01-20T18:42:20.529Z,2.00
2023-01-20T18:44:49.865Z,2.10
2023-01-20T18:47:19.038Z,2.10
2023-01-20T18:49:49.271Z,2.20
2023-01-20T18:52:22.581Z,2.10
2023-01-20T18:54:50.589Z,2.10
2023-01-20T18:57:18.205Z,2.10
2023-01-20T18:59:47.789Z,2.20
2023-01-20T19:02:15.454Z,2.20
2023-01-20T19:04:47.701Z,2.10
2023-01-20T19:07:15.726Z,2.10
2023-01-20T19:09:45.005Z,2.00
2023-01-20T19:12:20.409Z,2.00
2023-01-20T19:14:51.627Z,2.00
2023-01-20T19:20:04.745Z,2.00
2023-01-20T19:22:33.901Z,2.00
2023-01-20T19:25:03.238Z,2.00
2023-01-20T19:27:32.513Z,2.00
2023-01-20T19:30:02.908Z,2.00
2023-01-20T19:32:33.676Z,2.00
2023-01-20T19:35:02.916Z,2.00
2023-01-20T19:37:34.147Z,2.00
2023-01-20T19:40:06.274Z,2.00
2023-01-20T19:42:40.950Z,1.90
2023-01-20T19:45:15.187Z,1.90
2023-01-20T19:47:49.002Z,1.90
2023-01-20T19:50:19.148Z,1.90
2023-01-20T19:52:49.225Z,1.80
2023-01-20T19:55:19.581Z,2.00
2023-01-20T19:57:49.514Z,2.00
2023-01-20T20:00:22.784Z,1.90
2023-01-20T20:02:59.013Z,1.90
2023-01-20T20:05:27.567Z,1.90
2023-01-20T20:07:59.604Z,1.70
2023-01-20T20:10:28.702Z,1.70
2023-01-20T20:12:59.548Z,1.70
2023-01-20T20:15:30.076Z,1.60
2023-01-20T20:18:00.714Z,1.60
2023-01-20T20:20:30.198Z,1.60
2023-01-20T20:23:00.249Z,1.60
2023-01-20T20:25:29.598Z,1.50
2023-01-20T20:28:00.572Z,1.50
2023-01-20T20:30:30.588Z,1.50
2023-01-20T20:33:07.166Z,1.50
2023-01-20T20:35:42.383Z,1.50
2023-01-20T20:38:13.865Z,1.50
2023-01-20T20:40:46.205Z,1.50
2023-01-20T20:43:16.062Z,1.50
2023-01-20T20:45:45.491Z,1.40
2023-01-20T20:48:17.253Z,1.30
2023-01-20T20:50:46.279Z,1.30
2023-01-20T20:53:18.932Z,1.40
2023-01-20T20:55:54.348Z,1.40
2023-01-20T20:58:25.441Z,1.40
2023-01-20T21:01:03.338Z,1.30
2023-01-20T21:03:45.684Z,1.40
2023-01-20T21:06:16.584Z,1.40
2023-01-20T21:08:51.299Z,1.40
2023-01-20T21:11:23.408Z,1.30
2023-01-20T21:13:55.323Z,1.30
2023-01-20T21:16:24.566Z,1.40
2023-01-20T21:19:05.402Z,1.40
2023-01-20T21:21:35.260Z,1.40
2023-01-20T21:24:04.431Z,1.40
2023-01-20T21:26:32.922Z,1.40
2023-01-20T21:29:04.037Z,1.40
2023-01-20T21:31:32.410Z,1.50
2023-01-20T21:34:03.727Z,1.50
2023-01-20T21:36:34.642Z,1.50
2023-01-20T21:39:02.737Z,1.50
2023-01-20T21:41:30.921Z,1.50
2023-01-20T21:44:19.651Z,1.50
2023-01-20T21:46:50.422Z,1.50
2023-01-20T21:49:37.033Z,1.40
2023-01-20T21:52:24.806Z,1.30
2023-01-20T21:54:52.538Z,1.30
2023-01-20T21:57:21.777Z,1.20
2023-01-20T21:59:49.501Z,1.30
2023-01-20T22:02:20.033Z,1.30
2023-01-20T22:04:50.421Z,1.30
2023-01-20T22:07:18.292Z,1.30
2023-01-20T22:09:50.314Z,1.30
2023-01-20T22:12:19.512Z,1.10
2023-01-20T22:14:47.667Z,1.10
2023-01-20T22:17:15.785Z,1.10
2023-01-20T22:19:46.008Z,1.00
2023-01-20T22:22:15.363Z,1.20
2023-01-20T22:24:43.740Z,1.10
2023-01-20T22:27:13.986Z,1.10
2023-01-20T22:29:44.865Z,1.20
2023-01-20T22:32:17.150Z,1.20
2023-01-20T22:34:46.758Z,1.10
2023-01-20T22:37:14.875Z,1.00
2023-01-20T22:39:46.542Z,1.10
2023-01-20T22:42:13.694Z,1.00
2023-01-20T22:44:43.216Z,1.00
2023-01-20T22:47:14.237Z,1.00
2023-01-20T22:49:42.297Z,1.00
2023-01-20T22:52:13.971Z,0.90
2023-01-20T22:54:42.108Z,1.10
2023-01-20T22:57:13.451Z,1.00
2023-01-20T22:59:41.930Z,0.90
2023-01-20T23:02:13.963Z,0.90
2023-01-20T23:04:41.239Z,0.80
2023-01-20T23:07:14.522Z,0.60
2023-01-20T23:09:47.903Z,0.80
2023-01-20T23:12:19.827Z,0.70
2023-01-20T23:15:00.649Z,0.70
2023-01-20T23:17:29.069Z,0.80
2023-01-20T23:20:01.543Z,1.00
2023-01-20T23:22:30.628Z,0.90
2023-01-20T23:25:00.494Z,0.80
2023-01-20T23:27:30.732Z,0.50
2023-01-20T23:30:01.062Z,0.60
2023-01-20T23:32:30.682Z,0.60
2023-01-20T23:35:00.547Z,0.70
2023-01-20T23:37:32.114Z,0.60
2023-01-20T23:40:02.023Z,0.60
2023-01-20T23:42:31.397Z,0.70
2023-01-20T23:45:00.646Z,0.70
2023-01-20T23:47:30.723Z,0.70
2023-01-20T23:49:58.012Z,0.80
2023-01-20T23:52:26.318Z,0.60
2023-01-20T23:54:58.897Z,0.60
2023-01-20T23:57:36.467Z,0.50
